sensor_id;sensor_type;location;lat;lon;timestamp;P1;durP1;ratioP1;P2;durP2;ratioP2
33987;SDS011;37428;53.580;-1.666;2023-03-14T00:02:13;2.22;;;1.88;;
33987;SDS011;37428;53.580;-1.666;2023-03-14T00:05:15;1.40;;;0.95;;
33987;SDS011;37428;53.580;-1.666;2023-03-14T00:08:17;2.10;;;1.30;;
33987;SDS011;37428;53.580;-1.666;2023-03-14T00:11:22;1.15;;;1.05;;
33987;SDS011;37428;53.580;-1.666;2023-03-14T00:14:25;2.13;;;1.13;;
33987;SDS011;37428;53.580;-1.666;2023-03-14T00:17:27;2.70;;;1.70;;
33987;SDS011;37428;53.580;-1.666;2023-03-14T00:20:29;2.38;;;0.95;;
33987;SDS011;37428;53.580;-1.666;2023-03-14T00:23:31;2.50;;;1.58;;
33987;SDS011;37428;53.580;-1.666;2023-03-14T00:26:36;1.13;;;1.02;;
33987;SDS011;37428;53.580;-1.666;2023-03-14T00:29:38;2.47;;;1.15;;
33987;SDS011;37428;53.580;-1.666;2023-03-14T00:32:40;2.42;;;1.23;;
33987;SDS011;37428;53.580;-1.666;2023-03-14T00:38:45;4.53;;;1.50;;
33987;SDS011;37428;53.580;-1.666;2023-03-14T00:41:50;1.52;;;1.00;;
33987;SDS011;37428;53.580;-1.666;2023-03-14T00:44:52;3.75;;;1.77;;
33987;SDS011;37428;53.580;-1.666;2023-03-14T00:47:54;1.67;;;1.17;;
33987;SDS011;37428;53.580;-1.666;2023-03-14T00:50:56;0.80;;;0.80;;
33987;SDS011;37428;53.580;-1.666;2023-03-14T00:53:59;3.85;;;1.00;;
33987;SDS011;37428;53.580;-1.666;2023-03-14T00:57:03;1.20;;;0.70;;
33987;SDS011;37428;53.580;-1.666;2023-03-14T01:00:05;2.22;;;0.52;;
33987;SDS011;37428;53.580;-1.666;2023-03-14T01:03:12;2.80;;;0.50;;
33987;SDS011;37428;53.580;-1.666;2023-03-14T01:06:16;4.53;;;0.90;;
33987;SDS011;37428;53.580;-1.666;2023-03-14T01:09:19;3.03;;;0.68;;
33987;SDS011;37428;53.580;-1.666;2023-03-14T01:12:23;6.25;;;0.95;;
33987;SDS011;37428;53.580;-1.666;2023-03-14T01:15:25;3.05;;;0.70;;
33987;SDS011;37428;53.580;-1.666;2023-03-14T01:18:27;3.15;;;0.85;;
33987;SDS011;37428;53.580;-1.666;2023-03-14T01:21:30;3.78;;;0.98;;
33987;SDS011;37428;53.580;-1.666;2023-03-14T01:24:33;4.22;;;1.15;;
33987;SDS011;37428;53.580;-1.666;2023-03-14T01:27:37;9.07;;;1.25;;
33987;SDS011;37428;53.580;-1.666;2023-03-14T01:30:39;5.38;;;0.95;;
33987;SDS011;37428;53.580;-1.666;2023-03-14T01:33:41;3.67;;;0.75;;
33987;SDS011;37428;53.580;-1.666;2023-03-14T01:36:43;6.47;;;1.25;;
33987;SDS011;37428;53.580;-1.666;2023-03-14T01:39:46;7.43;;;1.05;;
33987;SDS011;37428;53.580;-1.666;2023-03-14T01:42:55;9.18;;;0.95;;
33987;SDS011;37428;53.580;-1.666;2023-03-14T01:49:26;9.23;;;1.00;;
33987;SDS011;37428;53.580;-1.666;2023-03-14T01:52:31;12.18;;;1.65;;
33987;SDS011;37428;53.580;-1.666;2023-03-14T01:55:36;7.13;;;0.98;;
33987;SDS011;37428;53.580;-1.666;2023-03-14T01:58:40;4.28;;;1.42;;
33987;SDS011;37428;53.580;-1.666;2023-03-14T02:01:46;6.78;;;0.98;;
33987;SDS011;37428;53.580;-1.666;2023-03-14T02:04:50;5.30;;;1.02;;
33987;SDS011;37428;53.580;-1.666;2023-03-14T02:07:54;5.45;;;0.90;;
33987;SDS011;37428;53.580;-1.666;2023-03-14T02:10:57;1.58;;;1.10;;
33987;SDS011;37428;53.580;-1.666;2023-03-14T02:14:01;8.25;;;2.00;;
33987;SDS011;37428;53.580;-1.666;2023-03-14T02:17:05;3.08;;;1.13;;
33987;SDS011;37428;53.580;-1.666;2023-03-14T02:20:14;5.35;;;1.25;;
33987;SDS011;37428;53.580;-1.666;2023-03-14T02:23:28;4.38;;;1.05;;
33987;SDS011;37428;53.580;-1.666;2023-03-14T02:26:36;8.32;;;0.98;;
33987;SDS011;37428;53.580;-1.666;2023-03-14T02:29:46;4.43;;;1.15;;
33987;SDS011;37428;53.580;-1.666;2023-03-14T02:32:52;2.30;;;0.68;;
33987;SDS011;37428;53.580;-1.666;2023-03-14T02:35:58;6.15;;;1.35;;
33987;SDS011;37428;53.580;-1.666;2023-03-14T02:39:05;4.90;;;1.05;;
33987;SDS011;37428;53.580;-1.666;2023-03-14T02:42:12;8.80;;;1.17;;
33987;SDS011;37428;53.580;-1.666;2023-03-14T02:54:44;8.77;;;1.20;;
33987;SDS011;37428;53.580;-1.666;2023-03-14T02:57:46;5.43;;;1.83;;
33987;SDS011;37428;53.580;-1.666;2023-03-14T03:00:49;8.52;;;1.52;;
33987;SDS011;37428;53.580;-1.666;2023-03-14T03:03:51;12.20;;;1.42;;
33987;SDS011;37428;53.580;-1.666;2023-03-14T03:06:53;6.15;;;1.00;;
33987;SDS011;37428;53.580;-1.666;2023-03-14T03:09:55;8.65;;;1.45;;
33987;SDS011;37428;53.580;-1.666;2023-03-14T03:12:57;8.85;;;1.58;;
33987;SDS011;37428;53.580;-1.666;2023-03-14T03:16:01;11.70;;;1.05;;
33987;SDS011;37428;53.580;-1.666;2023-03-14T03:19:03;10.82;;;1.55;;
33987;SDS011;37428;53.580;-1.666;2023-03-14T03:22:05;5.93;;;1.27;;
33987;SDS011;37428;53.580;-1.666;2023-03-14T03:25:08;10.00;;;1.77;;
33987;SDS011;37428;53.580;-1.666;2023-03-14T03:28:11;10.77;;;4.03;;
33987;SDS011;37428;53.580;-1.666;2023-03-14T03:31:14;17.77;;;2.15;;
33987;SDS011;37428;53.580;-1.666;2023-03-14T03:34:17;12.02;;;2.05;;
33987;SDS011;37428;53.580;-1.666;2023-03-14T03:37:19;15.65;;;2.13;;
33987;SDS011;37428;53.580;-1.666;2023-03-14T03:40:21;7.72;;;1.92;;
33987;SDS011;37428;53.580;-1.666;2023-03-14T03:43:23;7.03;;;2.25;;
33987;SDS011;37428;53.580;-1.666;2023-03-14T03:46:27;15.77;;;2.40;;
33987;SDS011;37428;53.580;-1.666;2023-03-14T03:49:29;17.38;;;4.05;;
33987;SDS011;37428;53.580;-1.666;2023-03-14T03:55:33;12.10;;;3.30;;
33987;SDS011;37428;53.580;-1.666;2023-03-14T03:58:35;12.65;;;2.00;;
33987;SDS011;37428;53.580;-1.666;2023-03-14T04:01:40;13.88;;;1.80;;
33987;SDS011;37428;53.580;-1.666;2023-03-14T04:04:43;19.60;;;2.60;;
33987;SDS011;37428;53.580;-1.666;2023-03-14T04:07:45;17.05;;;2.67;;
33987;SDS011;37428;53.580;-1.666;2023-03-14T04:10:47;8.32;;;1.92;;
33987;SDS011;37428;53.580;-1.666;2023-03-14T04:13:51;15.65;;;2.03;;
33987;SDS011;37428;53.580;-1.666;2023-03-14T04:16:54;13.48;;;2.22;;
33987;SDS011;37428;53.580;-1.666;2023-03-14T04:19:57;12.02;;;2.55;;
33987;SDS011;37428;53.580;-1.666;2023-03-14T04:22:59;12.77;;;2.13;;
33987;SDS011;37428;53.580;-1.666;2023-03-14T04:26:01;17.50;;;2.38;;
33987;SDS011;37428;53.580;-1.666;2023-03-14T04:29:03;17.80;;;2.78;;
33987;SDS011;37428;53.580;-1.666;2023-03-14T04:32:06;16.60;;;2.85;;
33987;SDS011;37428;53.580;-1.666;2023-03-14T04:35:09;14.18;;;2.30;;
33987;SDS011;37428;53.580;-1.666;2023-03-14T04:38:11;23.92;;;3.42;;
33987;SDS011;37428;53.580;-1.666;2023-03-14T04:41:13;22.63;;;3.25;;
33987;SDS011;37428;53.580;-1.666;2023-03-14T04:44:15;18.10;;;3.15;;
33987;SDS011;37428;53.580;-1.666;2023-03-14T04:47:19;18.20;;;2.53;;
33987;SDS011;37428;53.580;-1.666;2023-03-14T04:50:21;14.52;;;2.25;;
33987;SDS011;37428;53.580;-1.666;2023-03-14T04:53:23;25.77;;;3.25;;
33987;SDS011;37428;53.580;-1.666;2023-03-14T04:56:25;16.08;;;3.40;;
33987;SDS011;37428;53.580;-1.666;2023-03-14T04:59:27;29.80;;;3.50;;
33987;SDS011;37428;53.580;-1.666;2023-03-14T05:02:31;17.45;;;2.78;;
33987;SDS011;37428;53.580;-1.666;2023-03-14T05:05:33;20.15;;;2.95;;
33987;SDS011;37428;53.580;-1.666;2023-03-14T05:08:35;16.67;;;2.30;;
33987;SDS011;37428;53.580;-1.666;2023-03-14T05:11:37;16.20;;;2.45;;
33987;SDS011;37428;53.580;-1.666;2023-03-14T05:14:39;25.80;;;3.33;;
33987;SDS011;37428;53.580;-1.666;2023-03-14T05:17:43;23.65;;;3.55;;
33987;SDS011;37428;53.580;-1.666;2023-03-14T05:20:45;30.33;;;5.78;;
33987;SDS011;37428;53.580;-1.666;2023-03-14T05:23:47;17.60;;;2.65;;
33987;SDS011;37428;53.580;-1.666;2023-03-14T05:26:49;15.73;;;2.58;;
33987;SDS011;37428;53.580;-1.666;2023-03-14T05:29:52;20.13;;;2.17;;
33987;SDS011;37428;53.580;-1.666;2023-03-14T05:32:55;25.98;;;3.58;;
33987;SDS011;37428;53.580;-1.666;2023-03-14T05:35:57;21.88;;;3.10;;
33987;SDS011;37428;53.580;-1.666;2023-03-14T05:38:59;15.88;;;2.65;;
33987;SDS011;37428;53.580;-1.666;2023-03-14T05:42:03;22.10;;;3.13;;
33987;SDS011;37428;53.580;-1.666;2023-03-14T05:45:06;15.70;;;2.63;;
33987;SDS011;37428;53.580;-1.666;2023-03-14T05:48:10;14.40;;;3.40;;
33987;SDS011;37428;53.580;-1.666;2023-03-14T05:51:12;11.75;;;2.83;;
33987;SDS011;37428;53.580;-1.666;2023-03-14T05:54:14;12.45;;;2.88;;
33987;SDS011;37428;53.580;-1.666;2023-03-14T05:57:16;18.38;;;2.25;;
33987;SDS011;37428;53.580;-1.666;2023-03-14T06:00:19;20.40;;;2.35;;
33987;SDS011;37428;53.580;-1.666;2023-03-14T06:03:23;18.33;;;2.80;;
33987;SDS011;37428;53.580;-1.666;2023-03-14T06:06:25;15.05;;;2.40;;
33987;SDS011;37428;53.580;-1.666;2023-03-14T06:09:27;24.50;;;2.53;;
33987;SDS011;37428;53.580;-1.666;2023-03-14T06:12:29;23.55;;;2.88;;
33987;SDS011;37428;53.580;-1.666;2023-03-14T06:15:31;18.27;;;3.45;;
33987;SDS011;37428;53.580;-1.666;2023-03-14T06:18:35;24.45;;;4.18;;
33987;SDS011;37428;53.580;-1.666;2023-03-14T06:21:37;21.80;;;2.78;;
33987;SDS011;37428;53.580;-1.666;2023-03-14T06:24:39;12.93;;;1.75;;
33987;SDS011;37428;53.580;-1.666;2023-03-14T06:27:42;17.85;;;2.53;;
33987;SDS011;37428;53.580;-1.666;2023-03-14T06:30:44;22.52;;;2.30;;
33987;SDS011;37428;53.580;-1.666;2023-03-14T06:33:47;19.83;;;3.22;;
33987;SDS011;37428;53.580;-1.666;2023-03-14T06:36:49;22.33;;;2.78;;
33987;SDS011;37428;53.580;-1.666;2023-03-14T06:39:51;20.90;;;3.13;;
33987;SDS011;37428;53.580;-1.666;2023-03-14T06:42:54;16.00;;;2.38;;
33987;SDS011;37428;53.580;-1.666;2023-03-14T06:45:56;19.75;;;3.92;;
33987;SDS011;37428;53.580;-1.666;2023-03-14T06:48:59;15.98;;;2.70;;
33987;SDS011;37428;53.580;-1.666;2023-03-14T06:52:01;15.75;;;2.47;;
33987;SDS011;37428;53.580;-1.666;2023-03-14T06:55:03;13.60;;;3.17;;
33987;SDS011;37428;53.580;-1.666;2023-03-14T06:58:06;14.15;;;2.75;;
33987;SDS011;37428;53.580;-1.666;2023-03-14T07:01:12;12.88;;;1.95;;
33987;SDS011;37428;53.580;-1.666;2023-03-14T07:04:22;20.15;;;2.55;;
33987;SDS011;37428;53.580;-1.666;2023-03-14T07:07:24;12.18;;;2.30;;
33987;SDS011;37428;53.580;-1.666;2023-03-14T07:10:26;21.02;;;2.97;;
33987;SDS011;37428;53.580;-1.666;2023-03-14T07:13:28;23.65;;;2.53;;
33987;SDS011;37428;53.580;-1.666;2023-03-14T07:16:30;9.85;;;2.50;;
33987;SDS011;37428;53.580;-1.666;2023-03-14T07:19:34;17.30;;;3.20;;
33987;SDS011;37428;53.580;-1.666;2023-03-14T07:22:37;11.20;;;1.55;;
33987;SDS011;37428;53.580;-1.666;2023-03-14T07:25:40;16.80;;;2.63;;
33987;SDS011;37428;53.580;-1.666;2023-03-14T07:28:42;14.82;;;2.35;;
33987;SDS011;37428;53.580;-1.666;2023-03-14T07:31:44;17.50;;;2.80;;
33987;SDS011;37428;53.580;-1.666;2023-03-14T07:34:47;18.50;;;2.70;;
33987;SDS011;37428;53.580;-1.666;2023-03-14T07:37:49;10.90;;;2.42;;
33987;SDS011;37428;53.580;-1.666;2023-03-14T07:40:57;18.77;;;2.92;;
33987;SDS011;37428;53.580;-1.666;2023-03-14T07:44:00;14.20;;;2.10;;
33987;SDS011;37428;53.580;-1.666;2023-03-14T07:47:02;7.05;;;1.70;;
33987;SDS011;37428;53.580;-1.666;2023-03-14T07:50:06;8.88;;;1.85;;
33987;SDS011;37428;53.580;-1.666;2023-03-14T07:53:09;20.20;;;3.30;;
33987;SDS011;37428;53.580;-1.666;2023-03-14T07:56:11;14.73;;;2.17;;
33987;SDS011;37428;53.580;-1.666;2023-03-14T07:59:13;9.25;;;1.45;;
33987;SDS011;37428;53.580;-1.666;2023-03-14T08:02:16;10.27;;;1.67;;
33987;SDS011;37428;53.580;-1.666;2023-03-14T08:05:21;13.15;;;2.15;;
33987;SDS011;37428;53.580;-1.666;2023-03-14T08:08:23;7.15;;;2.20;;
33987;SDS011;37428;53.580;-1.666;2023-03-14T08:11:26;10.15;;;1.83;;
33987;SDS011;37428;53.580;-1.666;2023-03-14T08:14:28;10.35;;;1.95;;
33987;SDS011;37428;53.580;-1.666;2023-03-14T08:17:31;12.10;;;1.65;;
33987;SDS011;37428;53.580;-1.666;2023-03-14T08:20:35;10.75;;;2.00;;
33987;SDS011;37428;53.580;-1.666;2023-03-14T08:23:37;16.15;;;1.85;;
33987;SDS011;37428;53.580;-1.666;2023-03-14T08:26:39;11.18;;;1.58;;
33987;SDS011;37428;53.580;-1.666;2023-03-14T08:29:41;11.20;;;1.85;;
33987;SDS011;37428;53.580;-1.666;2023-03-14T08:32:43;13.38;;;2.90;;
33987;SDS011;37428;53.580;-1.666;2023-03-14T08:35:47;8.73;;;2.80;;
33987;SDS011;37428;53.580;-1.666;2023-03-14T08:38:49;14.18;;;3.78;;
33987;SDS011;37428;53.580;-1.666;2023-03-14T08:41:51;12.70;;;2.07;;
33987;SDS011;37428;53.580;-1.666;2023-03-14T08:47:57;12.23;;;2.40;;
33987;SDS011;37428;53.580;-1.666;2023-03-14T08:51:05;10.90;;;1.65;;
33987;SDS011;37428;53.580;-1.666;2023-03-14T08:54:09;9.48;;;2.28;;
33987;SDS011;37428;53.580;-1.666;2023-03-14T08:57:11;20.42;;;2.85;;
33987;SDS011;37428;53.580;-1.666;2023-03-14T09:00:14;7.05;;;2.05;;
33987;SDS011;37428;53.580;-1.666;2023-03-14T09:03:17;13.68;;;2.67;;
33987;SDS011;37428;53.580;-1.666;2023-03-14T09:06:20;11.95;;;2.38;;
33987;SDS011;37428;53.580;-1.666;2023-03-14T09:09:22;15.23;;;3.90;;
33987;SDS011;37428;53.580;-1.666;2023-03-14T09:12:24;13.02;;;2.50;;
33987;SDS011;37428;53.580;-1.666;2023-03-14T09:15:27;15.25;;;2.63;;
33987;SDS011;37428;53.580;-1.666;2023-03-14T09:18:29;12.70;;;1.90;;
33987;SDS011;37428;53.580;-1.666;2023-03-14T09:21:32;8.10;;;1.95;;
33987;SDS011;37428;53.580;-1.666;2023-03-14T09:24:34;11.48;;;2.75;;
33987;SDS011;37428;53.580;-1.666;2023-03-14T09:27:36;11.30;;;1.98;;
33987;SDS011;37428;53.580;-1.666;2023-03-14T09:30:38;16.33;;;1.95;;
33987;SDS011;37428;53.580;-1.666;2023-03-14T09:33:40;9.68;;;1.83;;
33987;SDS011;37428;53.580;-1.666;2023-03-14T09:36:44;17.88;;;2.50;;
33987;SDS011;37428;53.580;-1.666;2023-03-14T09:39:46;17.08;;;2.70;;
33987;SDS011;37428;53.580;-1.666;2023-03-14T09:42:48;6.90;;;2.10;;
33987;SDS011;37428;53.580;-1.666;2023-03-14T09:45:52;9.20;;;1.70;;
33987;SDS011;37428;53.580;-1.666;2023-03-14T09:48:55;4.97;;;1.48;;
33987;SDS011;37428;53.580;-1.666;2023-03-14T09:51:58;11.10;;;1.77;;
33987;SDS011;37428;53.580;-1.666;2023-03-14T09:55:02;12.35;;;2.20;;
33987;SDS011;37428;53.580;-1.666;2023-03-14T09:58:09;12.45;;;1.70;;
33987;SDS011;37428;53.580;-1.666;2023-03-14T10:01:14;13.98;;;2.22;;
33987;SDS011;37428;53.580;-1.666;2023-03-14T10:04:20;8.68;;;2.30;;
33987;SDS011;37428;53.580;-1.666;2023-03-14T10:07:27;9.90;;;2.08;;
33987;SDS011;37428;53.580;-1.666;2023-03-14T10:10:31;21.88;;;3.50;;
33987;SDS011;37428;53.580;-1.666;2023-03-14T10:13:33;8.32;;;1.55;;
33987;SDS011;37428;53.580;-1.666;2023-03-14T10:16:36;12.38;;;2.20;;
33987;SDS011;37428;53.580;-1.666;2023-03-14T10:19:52;8.18;;;1.50;;
33987;SDS011;37428;53.580;-1.666;2023-03-14T10:22:57;7.65;;;1.38;;
33987;SDS011;37428;53.580;-1.666;2023-03-14T10:26:02;7.65;;;1.60;;
33987;SDS011;37428;53.580;-1.666;2023-03-14T10:29:08;7.50;;;1.38;;
33987;SDS011;37428;53.580;-1.666;2023-03-14T10:32:18;6.88;;;1.85;;
33987;SDS011;37428;53.580;-1.666;2023-03-14T10:35:22;7.65;;;1.10;;
33987;SDS011;37428;53.580;-1.666;2023-03-14T10:38:27;5.82;;;1.15;;
33987;SDS011;37428;53.580;-1.666;2023-03-14T10:41:30;4.68;;;0.82;;
33987;SDS011;37428;53.580;-1.666;2023-03-14T10:44:33;8.55;;;1.25;;
33987;SDS011;37428;53.580;-1.666;2023-03-14T10:47:38;6.97;;;1.30;;
33987;SDS011;37428;53.580;-1.666;2023-03-14T10:50:54;2.92;;;0.70;;
33987;SDS011;37428;53.580;-1.666;2023-03-14T10:54:00;3.33;;;0.80;;
33987;SDS011;37428;53.580;-1.666;2023-03-14T10:57:04;4.53;;;0.80;;
33987;SDS011;37428;53.580;-1.666;2023-03-14T11:00:09;6.97;;;1.10;;
33987;SDS011;37428;53.580;-1.666;2023-03-14T11:03:15;7.38;;;2.00;;
33987;SDS011;37428;53.580;-1.666;2023-03-14T11:06:21;3.97;;;0.70;;
33987;SDS011;37428;53.580;-1.666;2023-03-14T11:09:31;2.20;;;0.65;;
33987;SDS011;37428;53.580;-1.666;2023-03-14T11:12:40;4.20;;;0.85;;
33987;SDS011;37428;53.580;-1.666;2023-03-14T11:15:50;6.50;;;0.70;;
33987;SDS011;37428;53.580;-1.666;2023-03-14T11:19:10;5.53;;;1.08;;
33987;SDS011;37428;53.580;-1.666;2023-03-14T11:22:32;4.63;;;0.90;;
33987;SDS011;37428;53.580;-1.666;2023-03-14T11:25:41;4.15;;;1.27;;
33987;SDS011;37428;53.580;-1.666;2023-03-14T11:28:50;2.75;;;0.80;;
33987;SDS011;37428;53.580;-1.666;2023-03-14T11:31:57;4.72;;;1.27;;
33987;SDS011;37428;53.580;-1.666;2023-03-14T11:35:09;4.00;;;0.77;;
33987;SDS011;37428;53.580;-1.666;2023-03-14T11:38:25;7.25;;;1.25;;
33987;SDS011;37428;53.580;-1.666;2023-03-14T11:41:32;2.42;;;0.55;;
33987;SDS011;37428;53.580;-1.666;2023-03-14T11:44:37;3.40;;;0.90;;
33987;SDS011;37428;53.580;-1.666;2023-03-14T11:47:40;4.55;;;0.77;;
33987;SDS011;37428;53.580;-1.666;2023-03-14T11:50:44;1.80;;;0.55;;
33987;SDS011;37428;53.580;-1.666;2023-03-14T11:53:57;2.22;;;0.55;;
33987;SDS011;37428;53.580;-1.666;2023-03-14T11:57:04;2.70;;;0.93;;
33987;SDS011;37428;53.580;-1.666;2023-03-14T12:00:14;1.75;;;0.47;;
33987;SDS011;37428;53.580;-1.666;2023-03-14T12:03:21;1.23;;;0.30;;
33987;SDS011;37428;53.580;-1.666;2023-03-14T12:06:45;1.85;;;0.80;;
33987;SDS011;37428;53.580;-1.666;2023-03-14T12:09:49;0.25;;;0.20;;
33987;SDS011;37428;53.580;-1.666;2023-03-14T12:12:53;1.05;;;0.35;;
33987;SDS011;37428;53.580;-1.666;2023-03-14T12:15:56;1.27;;;0.40;;
33987;SDS011;37428;53.580;-1.666;2023-03-14T12:19:24;1.02;;;0.35;;
33987;SDS011;37428;53.580;-1.666;2023-03-14T12:22:30;0.30;;;0.30;;
33987;SDS011;37428;53.580;-1.666;2023-03-14T12:25:34;1.30;;;0.47;;
33987;SDS011;37428;53.580;-1.666;2023-03-14T12:28:38;0.65;;;0.20;;
33987;SDS011;37428;53.580;-1.666;2023-03-14T12:31:43;1.95;;;0.50;;
33987;SDS011;37428;53.580;-1.666;2023-03-14T12:34:47;2.80;;;0.80;;
33987;SDS011;37428;53.580;-1.666;2023-03-14T12:37:49;7.10;;;0.80;;
33987;SDS011;37428;53.580;-1.666;2023-03-14T12:40:57;2.13;;;0.68;;
33987;SDS011;37428;53.580;-1.666;2023-03-14T12:51:12;3.90;;;0.60;;
33987;SDS011;37428;53.580;-1.666;2023-03-14T12:54:21;3.88;;;1.08;;
33987;SDS011;37428;53.580;-1.666;2023-03-14T12:57:39;3.03;;;1.10;;
33987;SDS011;37428;53.580;-1.666;2023-03-14T13:00:48;7.05;;;0.80;;
33987;SDS011;37428;53.580;-1.666;2023-03-14T13:03:57;5.90;;;1.10;;
33987;SDS011;37428;53.580;-1.666;2023-03-14T13:07:03;7.22;;;1.88;;
33987;SDS011;37428;53.580;-1.666;2023-03-14T13:10:16;4.90;;;1.00;;
33987;SDS011;37428;53.580;-1.666;2023-03-14T13:13:20;4.40;;;1.00;;
33987;SDS011;37428;53.580;-1.666;2023-03-14T13:16:27;2.97;;;0.73;;
33987;SDS011;37428;53.580;-1.666;2023-03-14T13:19:30;1.48;;;0.22;;
33987;SDS011;37428;53.580;-1.666;2023-03-14T13:22:34;0.20;;;0.20;;
33987;SDS011;37428;53.580;-1.666;2023-03-14T13:25:38;2.35;;;0.50;;
33987;SDS011;37428;53.580;-1.666;2023-03-14T13:28:41;2.20;;;1.23;;
33987;SDS011;37428;53.580;-1.666;2023-03-14T13:34:47;1.55;;;0.50;;
33987;SDS011;37428;53.580;-1.666;2023-03-14T13:37:53;1.63;;;0.30;;
33987;SDS011;37428;53.580;-1.666;2023-03-14T13:40:58;2.55;;;0.43;;
33987;SDS011;37428;53.580;-1.666;2023-03-14T13:44:05;3.38;;;0.60;;
33987;SDS011;37428;53.580;-1.666;2023-03-14T13:47:12;2.70;;;0.40;;
33987;SDS011;37428;53.580;-1.666;2023-03-14T13:50:17;2.50;;;0.68;;
33987;SDS011;37428;53.580;-1.666;2023-03-14T13:56:22;1.48;;;0.50;;
33987;SDS011;37428;53.580;-1.666;2023-03-14T13:59:27;2.13;;;0.38;;
33987;SDS011;37428;53.580;-1.666;2023-03-14T14:02:31;3.03;;;0.50;;
33987;SDS011;37428;53.580;-1.666;2023-03-14T14:05:34;3.28;;;0.40;;
33987;SDS011;37428;53.580;-1.666;2023-03-14T14:08:40;3.20;;;0.70;;
33987;SDS011;37428;53.580;-1.666;2023-03-14T14:11:44;3.15;;;0.55;;
33987;SDS011;37428;53.580;-1.666;2023-03-14T14:14:49;2.75;;;1.08;;
33987;SDS011;37428;53.580;-1.666;2023-03-14T14:17:56;2.10;;;0.75;;
33987;SDS011;37428;53.580;-1.666;2023-03-14T14:21:02;4.75;;;1.38;;
33987;SDS011;37428;53.580;-1.666;2023-03-14T14:24:05;2.33;;;0.50;;
33987;SDS011;37428;53.580;-1.666;2023-03-14T14:27:12;2.53;;;0.70;;
33987;SDS011;37428;53.580;-1.666;2023-03-14T14:30:28;3.67;;;0.70;;
33987;SDS011;37428;53.580;-1.666;2023-03-14T14:33:40;3.15;;;0.85;;
33987;SDS011;37428;53.580;-1.666;2023-03-14T14:36:43;4.32;;;0.70;;
33987;SDS011;37428;53.580;-1.666;2023-03-14T14:39:50;5.70;;;0.47;;
33987;SDS011;37428;53.580;-1.666;2023-03-14T14:42:54;0.70;;;0.30;;
33987;SDS011;37428;53.580;-1.666;2023-03-14T14:46:05;1.60;;;0.52;;
33987;SDS011;37428;53.580;-1.666;2023-03-14T14:49:10;1.92;;;0.43;;
33987;SDS011;37428;53.580;-1.666;2023-03-14T14:52:16;1.20;;;0.70;;
33987;SDS011;37428;53.580;-1.666;2023-03-14T14:55:19;2.33;;;0.50;;
33987;SDS011;37428;53.580;-1.666;2023-03-14T15:01:25;0.82;;;0.43;;
33987;SDS011;37428;53.580;-1.666;2023-03-14T15:04:35;4.75;;;0.85;;
33987;SDS011;37428;53.580;-1.666;2023-03-14T15:07:37;2.83;;;0.40;;
33987;SDS011;37428;53.580;-1.666;2023-03-14T15:10:40;3.60;;;1.08;;
33987;SDS011;37428;53.580;-1.666;2023-03-14T15:13:42;2.13;;;0.77;;
33987;SDS011;37428;53.580;-1.666;2023-03-14T15:16:44;2.85;;;0.88;;
33987;SDS011;37428;53.580;-1.666;2023-03-14T15:19:47;1.77;;;1.58;;
33987;SDS011;37428;53.580;-1.666;2023-03-14T15:22:50;1.65;;;0.57;;
33987;SDS011;37428;53.580;-1.666;2023-03-14T15:25:52;2.35;;;0.80;;
33987;SDS011;37428;53.580;-1.666;2023-03-14T15:31:56;1.27;;;0.52;;
33987;SDS011;37428;53.580;-1.666;2023-03-14T15:35:01;4.75;;;1.55;;
33987;SDS011;37428;53.580;-1.666;2023-03-14T15:38:04;2.08;;;0.90;;
33987;SDS011;37428;53.580;-1.666;2023-03-14T15:41:06;2.28;;;0.65;;
33987;SDS011;37428;53.580;-1.666;2023-03-14T15:44:10;1.10;;;0.70;;
33987;SDS011;37428;53.580;-1.666;2023-03-14T15:47:12;1.60;;;0.80;;
33987;SDS011;37428;53.580;-1.666;2023-03-14T15:50:16;6.00;;;1.75;;
33987;SDS011;37428;53.580;-1.666;2023-03-14T15:53:19;3.60;;;1.10;;
33987;SDS011;37428;53.580;-1.666;2023-03-14T15:56:35;1.90;;;1.10;;
33987;SDS011;37428;53.580;-1.666;2023-03-14T15:59:37;1.73;;;1.50;;
33987;SDS011;37428;53.580;-1.666;2023-03-14T16:02:40;2.17;;;0.60;;
33987;SDS011;37428;53.580;-1.666;2023-03-14T16:05:43;1.10;;;0.47;;
33987;SDS011;37428;53.580;-1.666;2023-03-14T16:08:46;2.53;;;0.80;;
33987;SDS011;37428;53.580;-1.666;2023-03-14T16:11:48;1.40;;;0.98;;
33987;SDS011;37428;53.580;-1.666;2023-03-14T16:14:50;1.90;;;0.80;;
33987;SDS011;37428;53.580;-1.666;2023-03-14T16:17:52;2.65;;;0.90;;
33987;SDS011;37428;53.580;-1.666;2023-03-14T16:20:57;0.98;;;0.30;;
33987;SDS011;37428;53.580;-1.666;2023-03-14T16:24:01;3.08;;;0.70;;
33987;SDS011;37428;53.580;-1.666;2023-03-14T16:27:06;1.67;;;0.60;;
33987;SDS011;37428;53.580;-1.666;2023-03-14T16:30:08;1.15;;;0.70;;
33987;SDS011;37428;53.580;-1.666;2023-03-14T16:33:13;8.05;;;4.88;;
33987;SDS011;37428;53.580;-1.666;2023-03-14T16:36:16;1.33;;;0.40;;
33987;SDS011;37428;53.580;-1.666;2023-03-14T16:39:18;4.43;;;3.05;;
33987;SDS011;37428;53.580;-1.666;2023-03-14T16:42:21;3.00;;;1.20;;
33987;SDS011;37428;53.580;-1.666;2023-03-14T16:48:26;5.53;;;1.15;;
33987;SDS011;37428;53.580;-1.666;2023-03-14T16:51:29;0.57;;;0.50;;
33987;SDS011;37428;53.580;-1.666;2023-03-14T16:54:32;1.98;;;0.90;;
33987;SDS011;37428;53.580;-1.666;2023-03-14T16:57:35;2.75;;;0.80;;
33987;SDS011;37428;53.580;-1.666;2023-03-14T17:00:37;3.35;;;0.98;;
33987;SDS011;37428;53.580;-1.666;2023-03-14T17:03:40;2.33;;;1.08;;
33987;SDS011;37428;53.580;-1.666;2023-03-14T17:06:45;2.30;;;0.65;;
33987;SDS011;37428;53.580;-1.666;2023-03-14T17:09:48;4.47;;;0.80;;
33987;SDS011;37428;53.580;-1.666;2023-03-14T17:12:50;5.10;;;1.40;;
33987;SDS011;37428;53.580;-1.666;2023-03-14T17:15:53;2.38;;;0.85;;
33987;SDS011;37428;53.580;-1.666;2023-03-14T17:18:56;4.65;;;1.70;;
33987;SDS011;37428;53.580;-1.666;2023-03-14T17:22:00;3.13;;;1.15;;
33987;SDS011;37428;53.580;-1.666;2023-03-14T17:25:02;3.35;;;1.25;;
33987;SDS011;37428;53.580;-1.666;2023-03-14T17:28:05;4.72;;;1.20;;
33987;SDS011;37428;53.580;-1.666;2023-03-14T17:31:08;5.18;;;1.52;;
33987;SDS011;37428;53.580;-1.666;2023-03-14T17:34:13;3.53;;;1.50;;
33987;SDS011;37428;53.580;-1.666;2023-03-14T17:37:16;3.00;;;1.50;;
33987;SDS011;37428;53.580;-1.666;2023-03-14T17:40:18;2.05;;;1.30;;
33987;SDS011;37428;53.580;-1.666;2023-03-14T17:43:20;3.58;;;1.58;;
33987;SDS011;37428;53.580;-1.666;2023-03-14T17:46:23;1.30;;;0.73;;
33987;SDS011;37428;53.580;-1.666;2023-03-14T17:49:26;2.75;;;1.10;;
33987;SDS011;37428;53.580;-1.666;2023-03-14T17:52:29;5.72;;;2.05;;
33987;SDS011;37428;53.580;-1.666;2023-03-14T17:55:31;3.88;;;1.55;;
33987;SDS011;37428;53.580;-1.666;2023-03-14T17:58:34;3.08;;;1.50;;
33987;SDS011;37428;53.580;-1.666;2023-03-14T18:01:37;6.13;;;1.95;;
33987;SDS011;37428;53.580;-1.666;2023-03-14T18:04:40;6.32;;;1.40;;
33987;SDS011;37428;53.580;-1.666;2023-03-14T18:07:44;4.43;;;1.42;;
33987;SDS011;37428;53.580;-1.666;2023-03-14T18:10:46;6.60;;;1.77;;
33987;SDS011;37428;53.580;-1.666;2023-03-14T18:13:53;3.00;;;1.65;;
33987;SDS011;37428;53.580;-1.666;2023-03-14T18:16:55;3.10;;;1.60;;
33987;SDS011;37428;53.580;-1.666;2023-03-14T18:23:01;3.17;;;1.45;;
33987;SDS011;37428;53.580;-1.666;2023-03-14T18:26:06;2.58;;;1.00;;
33987;SDS011;37428;53.580;-1.666;2023-03-14T18:32:13;4.05;;;1.38;;
33987;SDS011;37428;53.580;-1.666;2023-03-14T18:35:17;4.55;;;1.25;;
33987;SDS011;37428;53.580;-1.666;2023-03-14T18:38:20;6.90;;;2.03;;
33987;SDS011;37428;53.580;-1.666;2023-03-14T18:41:22;4.70;;;2.20;;
33987;SDS011;37428;53.580;-1.666;2023-03-14T18:44:25;3.05;;;1.98;;
33987;SDS011;37428;53.580;-1.666;2023-03-14T18:47:27;4.22;;;2.25;;
33987;SDS011;37428;53.580;-1.666;2023-03-14T18:50:30;6.07;;;3.28;;
33987;SDS011;37428;53.580;-1.666;2023-03-14T18:53:34;4.72;;;3.42;;
33987;SDS011;37428;53.580;-1.666;2023-03-14T18:56:37;9.18;;;4.00;;
33987;SDS011;37428;53.580;-1.666;2023-03-14T18:59:40;2.95;;;1.60;;